createdAt,value
2023-03-30T00:01:29.102Z,9.80
2023-03-30T00:03:59.156Z,9.82
2023-03-30T00:06:27.165Z,9.88
2023-03-30T00:08:58.007Z,9.91
2023-03-30T00:11:27.435Z,9.92
2023-03-30T00:13:55.492Z,9.94
2023-03-30T00:16:23.619Z,9.97
2023-03-30T00:18:51.589Z,10.01
2023-03-30T00:21:20.593Z,10.09
2023-03-30T00:23:48.862Z,10.14
2023-03-30T00:26:18.051Z,10.15
2023-03-30T00:28:46.004Z,10.15
2023-03-30T00:31:28.321Z,10.17
2023-03-30T00:33:56.048Z,10.22
2023-03-30T00:36:23.865Z,10.24
2023-03-30T00:38:51.528Z,10.30
2023-03-30T00:41:20.561Z,10.26
2023-03-30T00:43:59.696Z,10.26
2023-03-30T00:46:27.510Z,10.24
2023-03-30T00:48:59.638Z,10.30
2023-03-30T00:51:29.020Z,10.29
2023-03-30T00:54:04.633Z,10.24
2023-03-30T00:56:34.678Z,10.27
2023-03-30T00:59:03.848Z,10.29
2023-03-30T01:01:38.437Z,10.28
2023-03-30T01:04:08.134Z,10.26
2023-03-30T01:06:40.051Z,10.26
2023-03-30T01:09:08.377Z,10.30
2023-03-30T01:11:37.528Z,10.25
2023-03-30T01:14:07.668Z,10.25
2023-03-30T01:16:41.023Z,10.29
2023-03-30T01:19:33.565Z,10.33
2023-03-30T01:22:19.573Z,10.33
2023-03-30T01:25:15.154Z,10.33
2023-03-30T01:28:08.610Z,10.33
2023-03-30T01:30:56.086Z,10.34
2023-03-30T01:33:41.128Z,10.39
2023-03-30T01:36:28.839Z,10.40
2023-03-30T01:39:17.883Z,10.48
2023-03-30T01:41:56.044Z,10.50
2023-03-30T01:44:32.024Z,10.52
2023-03-30T01:47:07.180Z,10.48
2023-03-30T01:49:42.725Z,10.56
2023-03-30T01:52:17.371Z,10.59
2023-03-30T01:54:50.184Z,10.61
2023-03-30T01:57:21.277Z,10.66
2023-03-30T01:59:56.408Z,10.72
2023-03-30T02:02:28.408Z,10.89
2023-03-30T02:05:00.235Z,11.12
2023-03-30T02:07:32.491Z,11.25
2023-03-30T02:10:06.102Z,11.26
2023-03-30T02:12:34.338Z,11.18
2023-03-30T02:15:08.303Z,11.13
2023-03-30T02:17:38.118Z,11.10
2023-03-30T02:20:10.906Z,11.20
2023-03-30T02:22:38.868Z,11.17
2023-03-30T02:25:08.788Z,11.16
2023-03-30T02:27:37.937Z,11.16
2023-03-30T02:30:09.293Z,11.20
2023-03-30T02:32:42.936Z,11.19
2023-03-30T02:35:25.881Z,11.22
2023-03-30T02:38:08.410Z,11.18
2023-03-30T02:40:48.134Z,11.18
2023-03-30T02:43:42.922Z,11.17
2023-03-30T02:46:22.864Z,11.06
2023-03-30T02:49:02.531Z,10.91
2023-03-30T02:51:42.395Z,10.75
2023-03-30T02:54:20.321Z,10.69
2023-03-30T02:56:59.048Z,10.74
2023-03-30T02:59:32.004Z,10.86
2023-03-30T03:02:06.662Z,11.08
2023-03-30T03:04:36.323Z,11.19
2023-03-30T03:07:04.714Z,11.35
2023-03-30T03:09:32.378Z,11.38
2023-03-30T03:12:01.417Z,11.38
2023-03-30T03:14:29.543Z,11.59
2023-03-30T03:16:57.539Z,11.63
2023-03-30T03:19:25.581Z,11.79
2023-03-30T03:21:53.308Z,11.93
2023-03-30T03:24:21.713Z,11.88
2023-03-30T03:26:49.356Z,11.73
2023-03-30T03:29:18.614Z,11.61
2023-03-30T03:31:46.246Z,11.44
2023-03-30T03:34:13.946Z,11.31
2023-03-30T03:36:43.610Z,11.21
2023-03-30T03:39:11.815Z,11.10
2023-03-30T03:41:39.513Z,10.97
2023-03-30T03:44:07.307Z,10.89
2023-03-30T03:46:36.563Z,10.80
2023-03-30T03:49:05.111Z,10.75
2023-03-30T03:51:33.814Z,10.66
2023-03-30T03:54:01.788Z,10.61
2023-03-30T03:56:29.510Z,10.62
2023-03-30T03:58:57.395Z,10.56
2023-03-30T04:01:25.179Z,10.51
2023-03-30T04:03:54.209Z,10.47
2023-03-30T04:06:21.979Z,10.46
2023-03-30T04:08:49.728Z,10.44
2023-03-30T04:11:17.840Z,10.33
2023-03-30T04:13:45.514Z,10.29
2023-03-30T04:16:13.292Z,10.25
2023-03-30T04:18:41.755Z,10.15
2023-03-30T04:21:13.384Z,10.08
2023-03-30T04:23:45.735Z,10.01
2023-03-30T04:26:15.603Z,9.98
2023-03-30T04:28:43.249Z,10.00
2023-03-30T04:31:12.976Z,10.01
2023-03-30T04:33:51.873Z,10.01
2023-03-30T04:36:21.722Z,10.02
2023-03-30T04:38:58.473Z,9.99
2023-03-30T04:41:33.214Z,10.05
2023-03-30T04:44:02.752Z,10.03
2023-03-30T04:46:30.495Z,10.07
2023-03-30T04:48:58.254Z,10.05
2023-03-30T04:51:27.879Z,10.07
2023-03-30T04:53:55.839Z,10.08
2023-03-30T04:56:23.580Z,10.13
2023-03-30T04:58:51.252Z,10.13
2023-03-30T05:01:19.238Z,10.15
2023-03-30T05:03:47.119Z,10.15
2023-03-30T05:06:14.864Z,10.11
2023-03-30T05:08:43.953Z,10.10
2023-03-30T05:11:11.623Z,10.08
2023-03-30T05:13:40.490Z,10.07
2023-03-30T05:16:09.303Z,10.09
2023-03-30T05:18:38.813Z,10.08
2023-03-30T05:21:07.065Z,10.06
2023-03-30T05:23:34.817Z,10.09
2023-03-30T05:26:04.575Z,10.06
2023-03-30T05:28:34.862Z,10.05
2023-03-30T05:31:03.057Z,10.04
2023-03-30T05:33:31.124Z,10.03
2023-03-30T05:35:58.902Z,10.02
2023-03-30T05:38:26.686Z,9.96
2023-03-30T05:40:54.961Z,9.96
2023-03-30T05:43:23.958Z,9.96
2023-03-30T05:45:51.640Z,9.93
2023-03-30T05:48:19.377Z,9.92
2023-03-30T05:50:48.527Z,9.88
2023-03-30T05:53:16.489Z,9.90
2023-03-30T05:55:45.739Z,9.93
2023-03-30T05:58:13.558Z,9.95
2023-03-30T06:00:42.611Z,9.96
2023-03-30T06:03:10.700Z,9.97
2023-03-30T06:05:39.911Z,10.00
2023-03-30T06:08:08.515Z,10.03
2023-03-30T06:10:36.817Z,10.05
2023-03-30T06:13:05.294Z,10.10
2023-03-30T06:15:33.691Z,10.15
2023-03-30T06:18:03.959Z,10.22
2023-03-30T06:20:32.097Z,10.26
2023-03-30T06:22:59.838Z,10.30
2023-03-30T06:25:27.590Z,10.28
2023-03-30T06:27:55.544Z,10.36
2023-03-30T06:30:23.534Z,10.37
2023-03-30T06:32:51.300Z,10.34
2023-03-30T06:35:20.669Z,10.35
2023-03-30T06:37:48.557Z,10.30
2023-03-30T06:40:17.326Z,10.37
2023-03-30T06:42:45.769Z,10.41
2023-03-30T06:45:14.347Z,10.41
2023-03-30T06:47:45.409Z,10.50
2023-03-30T06:50:13.452Z,10.49
2023-03-30T06:52:42.661Z,10.53
2023-03-30T06:55:10.594Z,10.57
2023-03-30T06:57:38.429Z,10.53
2023-03-30T07:00:13.250Z,10.53
2023-03-30T07:02:41.404Z,10.56
2023-03-30T07:05:09.808Z,10.62
2023-03-30T07:07:38.496Z,10.68
2023-03-30T07:10:10.533Z,10.76
2023-03-30T07:12:41.120Z,10.82
2023-03-30T07:15:09.622Z,10.90
2023-03-30T07:17:38.808Z,10.96
2023-03-30T07:20:09.178Z,11.03
2023-03-30T07:22:36.984Z,11.02
2023-03-30T07:25:05.492Z,11.05
2023-03-30T07:27:36.108Z,11.14
2023-03-30T07:30:13.844Z,11.31
2023-03-30T07:32:46.221Z,11.34
2023-03-30T07:35:13.960Z,11.37
2023-03-30T07:37:41.688Z,11.40
2023-03-30T07:40:12.779Z,11.46
2023-03-30T07:42:44.825Z,11.43
2023-03-30T07:45:16.127Z,11.41
2023-03-30T07:47:45.733Z,11.47
2023-03-30T07:50:16.486Z,11.48
2023-03-30T07:52:44.274Z,11.51
2023-03-30T07:55:12.010Z,11.48
2023-03-30T07:57:39.838Z,11.54
2023-03-30T08:00:10.943Z,11.51
2023-03-30T08:02:38.998Z,11.56
2023-03-30T08:05:07.323Z,11.67
2023-03-30T08:07:35.485Z,11.62
2023-03-30T08:10:03.533Z,11.73
2023-03-30T08:12:33.992Z,11.92
2023-03-30T08:15:05.123Z,11.97
2023-03-30T08:17:36.631Z,12.01
2023-03-30T08:20:10.766Z,12.12
2023-03-30T08:22:38.627Z,12.27
2023-03-30T08:25:07.126Z,12.36
2023-03-30T08:27:34.996Z,12.39
2023-03-30T08:30:02.814Z,12.49
2023-03-30T08:32:32.250Z,12.70
2023-03-30T08:35:01.532Z,12.84
2023-03-30T08:37:36.269Z,12.96
2023-03-30T08:40:17.093Z,12.98
2023-03-30T08:43:04.701Z,12.86
2023-03-30T08:45:41.090Z,12.68
2023-03-30T08:48:18.014Z,12.51
2023-03-30T08:50:53.057Z,12.48
2023-03-30T08:53:27.810Z,12.55
2023-03-30T08:56:03.779Z,12.55
2023-03-30T08:58:46.523Z,12.71
2023-03-30T09:01:21.477Z,12.94
2023-03-30T09:04:05.309Z,13.09
2023-03-30T09:06:46.565Z,13.27
2023-03-30T09:09:17.514Z,13.27
2023-03-30T09:11:47.050Z,13.46
2023-03-30T09:14:23.739Z,13.57
2023-03-30T09:16:57.676Z,13.89
2023-03-30T09:19:33.150Z,14.04
2023-03-30T09:22:06.525Z,13.95
2023-03-30T09:24:35.695Z,13.82
2023-03-30T09:27:13.006Z,13.96
2023-03-30T09:29:47.621Z,14.09
2023-03-30T09:32:20.826Z,14.26
2023-03-30T09:34:58.806Z,14.32
2023-03-30T09:37:29.706Z,14.28
2023-03-30T09:39:59.014Z,14.55
2023-03-30T09:42:36.397Z,14.62
2023-03-30T09:45:12.673Z,14.79
2023-03-30T09:47:42.295Z,14.88
2023-03-30T09:50:12.357Z,15.05
2023-03-30T09:52:42.633Z,15.17
2023-03-30T09:55:26.734Z,15.24
2023-03-30T09:57:55.594Z,15.31
2023-03-30T10:00:29.313Z,15.33
2023-03-30T10:02:59.568Z,15.52
2023-03-30T10:05:28.515Z,15.55
2023-03-30T10:07:59.855Z,15.56
2023-03-30T10:10:34.896Z,15.64
2023-03-30T10:13:09.436Z,15.91
2023-03-30T10:15:40.138Z,16.18
2023-03-30T10:18:24.151Z,16.54
2023-03-30T10:20:53.438Z,16.81
2023-03-30T10:23:24.588Z,17.20
2023-03-30T10:25:52.454Z,17.33
2023-03-30T10:28:27.069Z,17.67
2023-03-30T10:30:57.123Z,18.22
2023-03-30T10:33:25.369Z,18.17
2023-03-30T10:35:56.406Z,18.05
2023-03-30T10:38:25.744Z,17.71
2023-03-30T10:41:02.617Z,17.43
2023-03-30T10:43:32.935Z,17.00
2023-03-30T10:46:19.379Z,16.81
2023-03-30T10:49:00.895Z,16.57
2023-03-30T10:51:41.570Z,16.33
2023-03-30T10:54:17.606Z,16.22
2023-03-30T10:56:48.907Z,16.13
2023-03-30T10:59:37.098Z,16.04
2023-03-30T11:02:24.931Z,15.81
2023-03-30T11:04:59.894Z,15.71
2023-03-30T11:07:31.813Z,15.65
2023-03-30T11:10:07.097Z,15.44
2023-03-30T11:12:38.636Z,15.20
2023-03-30T11:15:10.828Z,15.10
2023-03-30T11:17:49.173Z,15.03
2023-03-30T11:20:27.289Z,14.94
2023-03-30T11:23:07.759Z,14.58
2023-03-30T11:25:45.940Z,14.20
2023-03-30T11:28:28.475Z,14.02
2023-03-30T11:31:04.213Z,13.89
2023-03-30T11:33:39.108Z,13.98
2023-03-30T11:36:18.711Z,13.71
2023-03-30T11:38:52.869Z,12.98
2023-03-30T11:41:30.311Z,12.60
2023-03-30T11:44:03.549Z,12.58
2023-03-30T11:46:39.727Z,12.48
2023-03-30T11:49:21.198Z,12.54
2023-03-30T11:51:57.569Z,12.59
2023-03-30T11:55:01.859Z,12.43
2023-03-30T11:57:38.306Z,12.13
2023-03-30T12:00:28.987Z,11.87
2023-03-30T12:03:13.013Z,11.61
2023-03-30T12:05:46.188Z,11.27
2023-03-30T12:08:27.241Z,10.92
2023-03-30T12:11:02.315Z,10.65
2023-03-30T12:13:44.513Z,10.44
2023-03-30T12:16:34.271Z,10.28
2023-03-30T12:19:12.924Z,10.15
2023-03-30T12:21:48.887Z,10.09
2023-03-30T12:24:38.882Z,10.02
2023-03-30T12:27:12.482Z,9.94
2023-03-30T12:32:25.168Z,9.91
2023-03-30T12:34:55.214Z,9.87
2023-03-30T12:37:28.392Z,9.87
2023-03-30T12:40:04.327Z,9.91
2023-03-30T12:42:36.563Z,9.94
2023-03-30T12:45:21.243Z,9.96
2023-03-30T12:48:18.606Z,9.99
2023-03-30T12:50:58.074Z,10.01
2023-03-30T12:54:02.684Z,9.95
2023-03-30T12:56:37.998Z,9.97
2023-03-30T12:59:41.162Z,9.88
2023-03-30T13:02:38.278Z,9.88
2023-03-30T13:05:17.849Z,9.85
2023-03-30T13:07:46.238Z,9.85
2023-03-30T13:10:50.855Z,9.82
2023-03-30T13:13:48.258Z,9.81
2023-03-30T13:16:16.122Z,9.75
2023-03-30T13:18:56.254Z,9.73
2023-03-30T13:21:26.170Z,9.74
2023-03-30T13:24:04.685Z,9.75
2023-03-30T13:26:42.898Z,9.76
2023-03-30T13:29:14.250Z,9.76
2023-03-30T13:32:04.829Z,9.82
2023-03-30T13:34:58.495Z,9.85
2023-03-30T13:37:52.853Z,9.87
2023-03-30T13:40:39.604Z,9.86
2023-03-30T13:43:17.200Z,9.87
2023-03-30T13:45:56.378Z,9.89
2023-03-30T13:48:47.565Z,9.91
2023-03-30T13:51:20.701Z,9.88
2023-03-30T13:54:01.113Z,9.86
2023-03-30T13:56:33.136Z,9.95
2023-03-30T13:59:06.260Z,10.01
2023-03-30T14:01:34.899Z,10.03
2023-03-30T14:04:04.787Z,9.99
2023-03-30T14:06:35.429Z,10.00
2023-03-30T14:09:12.646Z,10.00
2023-03-30T14:11:45.580Z,10.02
2023-03-30T14:14:21.919Z,10.02
2023-03-30T14:16:50.817Z,10.04
2023-03-30T14:19:24.278Z,10.02
2023-03-30T14:21:57.362Z,10.01
2023-03-30T14:24:30.024Z,10.03
2023-03-30T14:27:03.256Z,10.03
2023-03-30T14:29:32.279Z,10.02
2023-03-30T14:32:09.042Z,9.99
2023-03-30T14:34:37.729Z,9.96
2023-03-30T14:37:09.117Z,9.98
2023-03-30T14:39:42.693Z,9.94
2023-03-30T14:42:15.933Z,9.97
2023-03-30T14:44:44.447Z,10.03
2023-03-30T14:47:12.494Z,10.08
2023-03-30T14:49:43.804Z,10.13
2023-03-30T14:52:18.739Z,10.25
2023-03-30T14:55:04.367Z,10.36
2023-03-30T14:57:37.802Z,10.49
2023-03-30T15:00:20.485Z,10.60
2023-03-30T15:02:52.317Z,10.69
2023-03-30T15:05:21.990Z,10.82
2023-03-30T15:07:52.778Z,10.80
2023-03-30T15:10:26.577Z,10.77
2023-03-30T15:12:57.545Z,10.68
2023-03-30T15:15:28.343Z,10.62
2023-03-30T15:17:57.664Z,10.59
2023-03-30T15:20:28.002Z,10.54
2023-03-30T15:22:57.282Z,10.54
2023-03-30T15:25:32.349Z,10.52
2023-03-30T15:28:03.517Z,10.49
2023-03-30T15:30:35.907Z,10.47
2023-03-30T15:33:03.848Z,10.45
2023-03-30T15:35:33.453Z,10.43
2023-03-30T15:38:04.170Z,10.44
2023-03-30T15:40:35.878Z,10.47
2023-03-30T15:43:14.706Z,10.45
2023-03-30T15:45:47.363Z,10.43
2023-03-30T15:48:17.334Z,10.39
2023-03-30T15:50:48.876Z,10.43
2023-03-30T15:53:26.536Z,10.52
2023-03-30T15:55:54.255Z,10.53
2023-03-30T15:58:26.619Z,10.45
2023-03-30T16:00:54.553Z,10.42
2023-03-30T16:03:38.695Z,10.38
2023-03-30T16:06:07.032Z,10.33
2023-03-30T16:08:39.728Z,10.45
2023-03-30T16:11:08.681Z,10.44
2023-03-30T16:13:41.471Z,10.58
2023-03-30T16:16:11.023Z,11.11
2023-03-30T16:18:41.295Z,11.51
2023-03-30T16:21:10.853Z,11.58
2023-03-30T16:23:40.361Z,11.41
2023-03-30T16:26:09.717Z,11.27
2023-03-30T16:28:37.643Z,11.31
2023-03-30T16:31:12.465Z,11.31
2023-03-30T16:33:40.496Z,11.36
2023-03-30T16:36:08.722Z,11.47
2023-03-30T16:38:36.578Z,11.83
2023-03-30T16:41:06.868Z,12.10
2023-03-30T16:43:34.691Z,11.62
2023-03-30T16:46:02.463Z,11.38
2023-03-30T16:48:30.428Z,11.15
2023-03-30T16:50:58.297Z,11.01
2023-03-30T16:53:26.076Z,10.88
2023-03-30T16:55:53.824Z,10.84
2023-03-30T16:58:22.891Z,10.79
2023-03-30T17:00:53.158Z,10.74
2023-03-30T17:03:21.567Z,10.81
2023-03-30T17:05:49.385Z,10.84
2023-03-30T17:08:22.842Z,10.76
2023-03-30T17:10:51.570Z,10.74
2023-03-30T17:13:23.960Z,10.66
2023-03-30T17:15:53.062Z,10.68
2023-03-30T17:18:22.397Z,10.61
2023-03-30T17:20:52.208Z,10.64
2023-03-30T17:23:21.087Z,10.61
2023-03-30T17:25:49.664Z,10.60
2023-03-30T17:28:22.222Z,10.60
2023-03-30T17:30:51.097Z,10.65
2023-03-30T17:33:20.438Z,10.71
2023-03-30T17:35:50.833Z,10.75
2023-03-30T17:38:18.688Z,10.78
2023-03-30T17:40:48.475Z,10.69
2023-03-30T17:43:16.646Z,10.70
2023-03-30T17:45:46.489Z,10.61
2023-03-30T17:48:17.592Z,10.56
2023-03-30T17:50:49.472Z,10.53
2023-03-30T17:53:18.966Z,10.50
2023-03-30T17:55:48.444Z,10.45
2023-03-30T17:58:19.789Z,10.48
2023-03-30T18:00:48.865Z,10.43
2023-03-30T18:03:17.199Z,10.40
2023-03-30T18:05:47.071Z,10.44
2023-03-30T18:08:17.508Z,10.43
2023-03-30T18:10:47.837Z,10.49
2023-03-30T18:13:16.493Z,10.48
2023-03-30T18:15:45.911Z,10.44
2023-03-30T18:18:22.345Z,10.38
2023-03-30T18:20:53.412Z,10.37
2023-03-30T18:23:21.504Z,10.48
2023-03-30T18:25:49.727Z,10.42
2023-03-30T18:28:18.959Z,10.45
2023-03-30T18:30:47.525Z,10.42
2023-03-30T18:33:17.107Z,10.45
2023-03-30T18:35:46.280Z,10.41
2023-03-30T18:38:17.349Z,10.39
2023-03-30T18:40:57.954Z,10.33
2023-03-30T18:43:26.994Z,10.34
2023-03-30T18:45:58.546Z,10.37
2023-03-30T18:48:28.781Z,10.31
2023-03-30T18:50:56.967Z,10.32
2023-03-30T18:53:27.952Z,10.24
2023-03-30T18:55:58.481Z,10.19
2023-03-30T18:58:41.674Z,10.29
2023-03-30T19:01:09.856Z,10.30
2023-03-30T19:03:37.720Z,10.24
2023-03-30T19:06:05.691Z,10.13
2023-03-30T19:08:34.896Z,10.12
2023-03-30T19:11:02.723Z,10.01
2023-03-30T19:13:30.426Z,9.97
2023-03-30T19:15:58.101Z,9.91
2023-03-30T19:18:25.756Z,9.78
2023-03-30T19:20:55.478Z,9.73
2023-03-30T19:23:23.227Z,9.68
2023-03-30T19:25:52.322Z,9.55
2023-03-30T19:28:20.324Z,9.36
2023-03-30T19:30:48.348Z,9.15
2023-03-30T19:33:19.632Z,8.93
2023-03-30T19:35:47.607Z,8.81
2023-03-30T19:38:16.009Z,8.71
2023-03-30T19:40:44.044Z,8.53
2023-03-30T19:43:13.105Z,8.37
2023-03-30T19:45:41.118Z,8.27
2023-03-30T19:48:09.621Z,8.23
2023-03-30T19:50:38.510Z,8.23
2023-03-30T19:53:06.244Z,8.23
2023-03-30T19:55:33.941Z,8.29
2023-03-30T19:58:01.803Z,8.27
2023-03-30T20:00:34.697Z,8.68
2023-03-30T20:03:02.749Z,9.10
2023-03-30T20:05:30.541Z,9.27
2023-03-30T20:07:58.784Z,9.31
2023-03-30T20:10:30.296Z,9.29
2023-03-30T20:12:58.038Z,9.15
2023-03-30T20:15:26.870Z,9.16
2023-03-30T20:17:56.643Z,9.08
2023-03-30T20:20:25.530Z,9.02
2023-03-30T20:22:56.335Z,8.99
2023-03-30T20:25:25.065Z,8.79
2023-03-30T20:27:52.927Z,8.86
2023-03-30T20:30:21.395Z,8.79
2023-03-30T20:33:07.409Z,8.78
2023-03-30T20:35:38.561Z,8.83
2023-03-30T20:38:06.512Z,8.78
2023-03-30T20:40:34.205Z,8.93
2023-03-30T20:43:03.265Z,8.91
2023-03-30T20:45:31.760Z,8.85
2023-03-30T20:48:05.982Z,8.96
2023-03-30T20:50:34.568Z,9.04
2023-03-30T20:53:03.737Z,9.19
2023-03-30T20:55:31.418Z,9.20
2023-03-30T20:57:59.188Z,9.19
2023-03-30T21:00:27.471Z,9.16
2023-03-30T21:02:55.307Z,9.08
2023-03-30T21:05:23.033Z,8.99
2023-03-30T21:07:50.674Z,8.86
2023-03-30T21:10:19.750Z,8.76
2023-03-30T21:12:47.441Z,8.73
2023-03-30T21:15:15.250Z,8.71
2023-03-30T21:17:43.411Z,8.64
2023-03-30T21:20:14.062Z,8.61
2023-03-30T21:22:41.791Z,8.59
2023-03-30T21:25:11.303Z,8.58
2023-03-30T21:27:40.719Z,8.60
2023-03-30T21:30:10.686Z,8.63
2023-03-30T21:32:38.381Z,8.64
2023-03-30T21:35:06.685Z,8.66
2023-03-30T21:37:34.363Z,8.66
2023-03-30T21:40:02.034Z,8.68
2023-03-30T21:42:29.682Z,8.59
2023-03-30T21:44:58.775Z,8.47
2023-03-30T21:47:26.489Z,8.36
2023-03-30T21:49:54.158Z,8.16
2023-03-30T21:52:21.819Z,8.00
2023-03-30T21:54:49.643Z,7.82
2023-03-30T21:57:17.419Z,7.64
2023-03-30T21:59:45.285Z,7.47
2023-03-30T22:02:14.498Z,7.30
2023-03-30T22:04:43.961Z,7.14
2023-03-30T22:07:12.178Z,7.06
2023-03-30T22:09:39.882Z,6.94
2023-03-30T22:12:07.753Z,6.85
2023-03-30T22:14:35.637Z,6.78
2023-03-30T22:17:03.283Z,6.68
2023-03-30T22:19:34.390Z,6.59
2023-03-30T22:22:02.027Z,6.52
2023-03-30T22:24:29.724Z,6.42
2023-03-30T22:26:57.365Z,6.30
2023-03-30T22:29:25.024Z,6.21
2023-03-30T22:31:55.816Z,6.16
2023-03-30T22:34:23.513Z,6.17
2023-03-30T22:36:52.814Z,6.24
2023-03-30T22:39:21.053Z,6.40
2023-03-30T22:41:48.869Z,6.54
2023-03-30T22:44:17.784Z,6.69
2023-03-30T22:46:45.451Z,6.81
2023-03-30T22:49:14.068Z,6.99
2023-03-30T22:51:52.484Z,7.04
2023-03-30T22:59:37.802Z,6.96
2023-03-30T23:02:05.469Z,7.00
2023-03-30T23:04:34.263Z,7.01
2023-03-30T23:07:04.091Z,7.03
2023-03-30T23:09:33.439Z,7.02
2023-03-30T23:12:01.117Z,6.98
2023-03-30T23:14:28.819Z,6.81
2023-03-30T23:16:58.570Z,6.72
2023-03-30T23:19:29.369Z,6.67
2023-03-30T23:21:57.533Z,6.70
2023-03-30T23:24:25.313Z,6.74
2023-03-30T23:26:52.966Z,6.74
2023-03-30T23:29:20.827Z,6.79
2023-03-30T23:31:51.868Z,6.77
2023-03-30T23:34:22.642Z,6.77
2023-03-30T23:36:50.926Z,6.86
2023-03-30T23:39:18.617Z,6.90
2023-03-30T23:41:46.580Z,6.98
2023-03-30T23:44:14.270Z,7.00
2023-03-30T23:46:42.047Z,7.02
2023-03-30T23:49:09.737Z,7.03
2023-03-30T23:51:38.804Z,7.04
2023-03-30T23:54:07.052Z,7.05
2023-03-30T23:56:34.867Z,7.08
2023-03-30T23:59:02.820Z,7.09
